Huvudsida
METAR-TAF:

METAR-TAF

Flygplatser :

Šiauliai, Litauen

Šiauliai internationella flygplats

latitud: 55-53-38N, longitud: 023-23-42E, höjd: 135 m

Aktuellt väderrapport

Denna rapport gjordes för 7 minuter sedan, klockan 18:20 UTC
Vind 7 kt från nord/nordost
Temperatur 8°C
Fuktighet 71%
Tryck 1015 hPa
Sikt 10 km eller mer
Inga moln under 1 500 m eller inga cumulonimbus

METAR: EYSA 221820Z 03007KT CAVOK 08/03 Q1015 BLU NOSIG

Tid: 21:27 (18:27 UTC)

Väderprognos

Denna rapport gjordes för 1 timme och 25 minuter sedan, klockan 17:02 UTC
Prognos gäller från 22 kl. 18 UTC till 23 kl. 03 UTC
Vind 4 kt varierande vindriktning
Sikt 10 km eller mer
Inga moln under 1 500 m eller inga cumulonimbus

TAF: EYSA 221702Z 2218/2303 VRB04KT CAVOK

Aktuella väderrapporter och prognoser från 4000 flygplatser (METAR- och TAF-rapporter).

De tillgängliga stationerna syns som gula och röda prickar på kartan.

För musen över prickarna för att se namnen på stationerna.

Klicka sedan för att få väderrapporter och prognoser.

För att ändra kartan: Klicka på de gröna knapparna med ett svart kors på för att zooma in; den gröna knappen med ett streck på för att zooma ut; eller på de gröna pilarna för angränsande kartor.


METAR-TAF: